sensor_id;sensor_type;location;lat;lon;timestamp;P1;durP1;ratioP1;P2;durP2;ratioP2
21894;SDS011;11112;51.270;7.224;2023-11-21T00:00:57;22.08;;;12.32;;
21894;SDS011;11112;51.270;7.224;2023-11-21T00:03:26;16.15;;;11.63;;
21894;SDS011;11112;51.270;7.224;2023-11-21T00:05:54;16.40;;;11.90;;
21894;SDS011;11112;51.270;7.224;2023-11-21T00:08:21;20.25;;;11.48;;
21894;SDS011;11112;51.270;7.224;2023-11-21T00:10:48;20.55;;;11.60;;
21894;SDS011;11112;51.270;7.224;2023-11-21T00:13:16;20.52;;;11.93;;
21894;SDS011;11112;51.270;7.224;2023-11-21T00:15:44;18.77;;;12.38;;
21894;SDS011;11112;51.270;7.224;2023-11-21T00:18:11;18.60;;;11.80;;
21894;SDS011;11112;51.270;7.224;2023-11-21T00:20:39;17.17;;;11.52;;
21894;SDS011;11112;51.270;7.224;2023-11-21T00:23:07;18.90;;;12.82;;
21894;SDS011;11112;51.270;7.224;2023-11-21T00:25:34;19.63;;;11.90;;
21894;SDS011;11112;51.270;7.224;2023-11-21T00:28:01;17.25;;;11.63;;
21894;SDS011;11112;51.270;7.224;2023-11-21T00:30:31;19.10;;;11.95;;
21894;SDS011;11112;51.270;7.224;2023-11-21T00:33:02;18.08;;;10.93;;
21894;SDS011;11112;51.270;7.224;2023-11-21T00:35:29;18.75;;;11.63;;
21894;SDS011;11112;51.270;7.224;2023-11-21T00:37:59;19.20;;;11.57;;
21894;SDS011;11112;51.270;7.224;2023-11-21T00:40:26;20.63;;;11.85;;
21894;SDS011;11112;51.270;7.224;2023-11-21T00:42:53;18.30;;;11.30;;
21894;SDS011;11112;51.270;7.224;2023-11-21T00:45:21;17.63;;;11.85;;
21894;SDS011;11112;51.270;7.224;2023-11-21T00:47:51;18.27;;;11.90;;
21894;SDS011;11112;51.270;7.224;2023-11-21T00:50:19;19.27;;;12.32;;
21894;SDS011;11112;51.270;7.224;2023-11-21T00:52:47;21.40;;;12.55;;
21894;SDS011;11112;51.270;7.224;2023-11-21T00:55:16;18.95;;;12.35;;
21894;SDS011;11112;51.270;7.224;2023-11-21T00:57:46;21.58;;;12.77;;
21894;SDS011;11112;51.270;7.224;2023-11-21T01:00:13;18.45;;;11.85;;
21894;SDS011;11112;51.270;7.224;2023-11-21T01:02:42;21.80;;;11.95;;
21894;SDS011;11112;51.270;7.224;2023-11-21T01:05:09;19.77;;;11.88;;
21894;SDS011;11112;51.270;7.224;2023-11-21T01:07:38;23.13;;;11.50;;
21894;SDS011;11112;51.270;7.224;2023-11-21T01:10:06;17.73;;;11.65;;
21894;SDS011;11112;51.270;7.224;2023-11-21T01:12:35;19.95;;;12.20;;
21894;SDS011;11112;51.270;7.224;2023-11-21T01:15:03;16.92;;;11.63;;
21894;SDS011;11112;51.270;7.224;2023-11-21T01:17:32;19.83;;;12.43;;
21894;SDS011;11112;51.270;7.224;2023-11-21T01:20:00;18.85;;;12.68;;
21894;SDS011;11112;51.270;7.224;2023-11-21T01:22:28;19.38;;;13.35;;
21894;SDS011;11112;51.270;7.224;2023-11-21T01:24:56;20.13;;;13.27;;
21894;SDS011;11112;51.270;7.224;2023-11-21T01:27:23;24.02;;;13.25;;
21894;SDS011;11112;51.270;7.224;2023-11-21T01:29:50;22.60;;;12.75;;
21894;SDS011;11112;51.270;7.224;2023-11-21T01:32:18;18.55;;;11.77;;
21894;SDS011;11112;51.270;7.224;2023-11-21T01:34:45;20.63;;;12.55;;
21894;SDS011;11112;51.270;7.224;2023-11-21T01:37:14;19.50;;;12.60;;
21894;SDS011;11112;51.270;7.224;2023-11-21T01:39:42;15.82;;;11.57;;
21894;SDS011;11112;51.270;7.224;2023-11-21T01:42:11;19.17;;;11.82;;
21894;SDS011;11112;51.270;7.224;2023-11-21T01:44:39;21.00;;;12.60;;
21894;SDS011;11112;51.270;7.224;2023-11-21T01:47:06;18.48;;;12.13;;
21894;SDS011;11112;51.270;7.224;2023-11-21T01:49:37;21.02;;;13.20;;
21894;SDS011;11112;51.270;7.224;2023-11-21T01:52:04;18.75;;;12.07;;
21894;SDS011;11112;51.270;7.224;2023-11-21T01:54:33;19.63;;;11.73;;
21894;SDS011;11112;51.270;7.224;2023-11-21T01:57:02;17.80;;;12.07;;
21894;SDS011;11112;51.270;7.224;2023-11-21T01:59:33;20.73;;;12.65;;
21894;SDS011;11112;51.270;7.224;2023-11-21T02:02:03;19.27;;;12.35;;
21894;SDS011;11112;51.270;7.224;2023-11-21T02:04:31;21.65;;;12.00;;
21894;SDS011;11112;51.270;7.224;2023-11-21T02:06:58;20.45;;;12.48;;
21894;SDS011;11112;51.270;7.224;2023-11-21T02:09:26;16.48;;;11.80;;
21894;SDS011;11112;51.270;7.224;2023-11-21T02:11:55;18.10;;;11.45;;
21894;SDS011;11112;51.270;7.224;2023-11-21T02:14:23;19.30;;;11.93;;
21894;SDS011;11112;51.270;7.224;2023-11-21T02:16:53;16.83;;;11.35;;
21894;SDS011;11112;51.270;7.224;2023-11-21T02:19:22;19.67;;;12.18;;
21894;SDS011;11112;51.270;7.224;2023-11-21T02:21:51;16.17;;;11.10;;
21894;SDS011;11112;51.270;7.224;2023-11-21T02:24:22;17.17;;;11.43;;
21894;SDS011;11112;51.270;7.224;2023-11-21T02:26:50;22.13;;;12.55;;
21894;SDS011;11112;51.270;7.224;2023-11-21T02:29:17;19.48;;;11.95;;
21894;SDS011;11112;51.270;7.224;2023-11-21T02:31:47;19.33;;;12.30;;
21894;SDS011;11112;51.270;7.224;2023-11-21T02:34:19;18.55;;;12.07;;
21894;SDS011;11112;51.270;7.224;2023-11-21T02:36:48;17.02;;;12.15;;
21894;SDS011;11112;51.270;7.224;2023-11-21T02:39:16;18.42;;;11.77;;
21894;SDS011;11112;51.270;7.224;2023-11-21T02:41:48;22.60;;;12.20;;
21894;SDS011;11112;51.270;7.224;2023-11-21T02:44:15;19.90;;;11.73;;
21894;SDS011;11112;51.270;7.224;2023-11-21T02:46:42;18.77;;;11.98;;
21894;SDS011;11112;51.270;7.224;2023-11-21T02:49:09;20.98;;;12.40;;
21894;SDS011;11112;51.270;7.224;2023-11-21T02:51:37;20.75;;;11.80;;
21894;SDS011;11112;51.270;7.224;2023-11-21T02:54:04;17.73;;;12.13;;
21894;SDS011;11112;51.270;7.224;2023-11-21T02:56:33;18.80;;;11.35;;
21894;SDS011;11112;51.270;7.224;2023-11-21T02:59:02;18.40;;;12.55;;
21894;SDS011;11112;51.270;7.224;2023-11-21T03:01:29;21.10;;;12.68;;
21894;SDS011;11112;51.270;7.224;2023-11-21T03:03:57;20.65;;;12.35;;
21894;SDS011;11112;51.270;7.224;2023-11-21T03:06:25;20.20;;;12.05;;
21894;SDS011;11112;51.270;7.224;2023-11-21T03:08:52;18.77;;;11.75;;
21894;SDS011;11112;51.270;7.224;2023-11-21T03:11:19;17.33;;;11.93;;
21894;SDS011;11112;51.270;7.224;2023-11-21T03:13:46;20.85;;;12.52;;
21894;SDS011;11112;51.270;7.224;2023-11-21T03:16:15;21.42;;;13.48;;
21894;SDS011;11112;51.270;7.224;2023-11-21T03:18:44;21.30;;;13.35;;
21894;SDS011;11112;51.270;7.224;2023-11-21T03:21:17;21.85;;;12.70;;
21894;SDS011;11112;51.270;7.224;2023-11-21T03:23:44;20.52;;;12.25;;
21894;SDS011;11112;51.270;7.224;2023-11-21T03:26:11;22.10;;;11.57;;
21894;SDS011;11112;51.270;7.224;2023-11-21T03:28:39;20.88;;;11.73;;
21894;SDS011;11112;51.270;7.224;2023-11-21T03:31:06;20.00;;;11.68;;
21894;SDS011;11112;51.270;7.224;2023-11-21T03:33:35;22.05;;;12.70;;
21894;SDS011;11112;51.270;7.224;2023-11-21T03:36:02;18.60;;;11.60;;
21894;SDS011;11112;51.270;7.224;2023-11-21T03:38:30;22.95;;;11.38;;
21894;SDS011;11112;51.270;7.224;2023-11-21T03:40:57;20.80;;;11.20;;
21894;SDS011;11112;51.270;7.224;2023-11-21T03:43:24;20.15;;;11.00;;
21894;SDS011;11112;51.270;7.224;2023-11-21T03:45:55;24.20;;;12.10;;
21894;SDS011;11112;51.270;7.224;2023-11-21T03:48:22;20.92;;;11.80;;
21894;SDS011;11112;51.270;7.224;2023-11-21T03:50:50;16.15;;;11.02;;
21894;SDS011;11112;51.270;7.224;2023-11-21T03:53:20;18.00;;;11.63;;
21894;SDS011;11112;51.270;7.224;2023-11-21T03:55:47;19.02;;;11.45;;
21894;SDS011;11112;51.270;7.224;2023-11-21T03:58:15;18.73;;;11.60;;
21894;SDS011;11112;51.270;7.224;2023-11-21T04:00:42;21.25;;;12.10;;
21894;SDS011;11112;51.270;7.224;2023-11-21T04:03:11;18.85;;;11.98;;
21894;SDS011;11112;51.270;7.224;2023-11-21T04:05:38;20.60;;;11.57;;
21894;SDS011;11112;51.270;7.224;2023-11-21T04:08:07;21.83;;;12.45;;
21894;SDS011;11112;51.270;7.224;2023-11-21T04:10:34;21.83;;;11.43;;
21894;SDS011;11112;51.270;7.224;2023-11-21T04:13:01;24.75;;;12.52;;
21894;SDS011;11112;51.270;7.224;2023-11-21T04:15:28;21.73;;;12.85;;
21894;SDS011;11112;51.270;7.224;2023-11-21T04:17:55;20.15;;;12.65;;
21894;SDS011;11112;51.270;7.224;2023-11-21T04:20:22;18.13;;;11.35;;
21894;SDS011;11112;51.270;7.224;2023-11-21T04:22:50;19.73;;;11.77;;
21894;SDS011;11112;51.270;7.224;2023-11-21T04:25:18;22.00;;;11.55;;
21894;SDS011;11112;51.270;7.224;2023-11-21T04:27:45;19.88;;;11.85;;
21894;SDS011;11112;51.270;7.224;2023-11-21T04:30:13;17.65;;;11.05;;
21894;SDS011;11112;51.270;7.224;2023-11-21T04:32:40;18.48;;;11.50;;
21894;SDS011;11112;51.270;7.224;2023-11-21T04:35:08;19.08;;;12.13;;
21894;SDS011;11112;51.270;7.224;2023-11-21T04:37:35;21.17;;;12.40;;
21894;SDS011;11112;51.270;7.224;2023-11-21T04:40:03;23.67;;;12.63;;
21894;SDS011;11112;51.270;7.224;2023-11-21T04:42:34;19.63;;;12.07;;
21894;SDS011;11112;51.270;7.224;2023-11-21T04:45:02;22.77;;;12.32;;
21894;SDS011;11112;51.270;7.224;2023-11-21T04:47:34;25.75;;;13.68;;
21894;SDS011;11112;51.270;7.224;2023-11-21T04:50:01;22.90;;;13.25;;
21894;SDS011;11112;51.270;7.224;2023-11-21T04:52:28;24.90;;;13.52;;
21894;SDS011;11112;51.270;7.224;2023-11-21T04:54:56;28.00;;;14.00;;
21894;SDS011;11112;51.270;7.224;2023-11-21T04:57:24;29.95;;;14.10;;
21894;SDS011;11112;51.270;7.224;2023-11-21T04:59:52;23.50;;;12.48;;
21894;SDS011;11112;51.270;7.224;2023-11-21T05:02:20;24.08;;;13.77;;
21894;SDS011;11112;51.270;7.224;2023-11-21T05:04:47;23.15;;;13.63;;
21894;SDS011;11112;51.270;7.224;2023-11-21T05:07:14;25.55;;;14.32;;
21894;SDS011;11112;51.270;7.224;2023-11-21T05:09:43;24.60;;;14.40;;
21894;SDS011;11112;51.270;7.224;2023-11-21T05:12:11;24.23;;;13.57;;
21894;SDS011;11112;51.270;7.224;2023-11-21T05:14:39;25.25;;;13.85;;
21894;SDS011;11112;51.270;7.224;2023-11-21T05:17:08;24.77;;;12.35;;
21894;SDS011;11112;51.270;7.224;2023-11-21T05:19:35;22.63;;;13.05;;
21894;SDS011;11112;51.270;7.224;2023-11-21T05:22:03;21.40;;;12.15;;
21894;SDS011;11112;51.270;7.224;2023-11-21T05:24:31;21.13;;;12.60;;
21894;SDS011;11112;51.270;7.224;2023-11-21T05:26:58;20.98;;;12.35;;
21894;SDS011;11112;51.270;7.224;2023-11-21T05:29:25;21.02;;;12.90;;
21894;SDS011;11112;51.270;7.224;2023-11-21T05:31:52;23.05;;;13.57;;
21894;SDS011;11112;51.270;7.224;2023-11-21T05:34:20;24.00;;;13.85;;
21894;SDS011;11112;51.270;7.224;2023-11-21T05:36:49;26.35;;;14.25;;
21894;SDS011;11112;51.270;7.224;2023-11-21T05:39:16;30.20;;;15.75;;
21894;SDS011;11112;51.270;7.224;2023-11-21T05:41:44;26.50;;;14.68;;
21894;SDS011;11112;51.270;7.224;2023-11-21T05:44:12;28.38;;;14.50;;
21894;SDS011;11112;51.270;7.224;2023-11-21T05:46:40;26.42;;;14.07;;
21894;SDS011;11112;51.270;7.224;2023-11-21T05:49:08;27.80;;;13.98;;
21894;SDS011;11112;51.270;7.224;2023-11-21T05:51:37;24.73;;;13.77;;
21894;SDS011;11112;51.270;7.224;2023-11-21T05:54:04;23.38;;;14.88;;
21894;SDS011;11112;51.270;7.224;2023-11-21T05:56:33;31.13;;;19.20;;
21894;SDS011;11112;51.270;7.224;2023-11-21T05:59:00;30.77;;;19.65;;
21894;SDS011;11112;51.270;7.224;2023-11-21T06:01:28;32.05;;;19.48;;
21894;SDS011;11112;51.270;7.224;2023-11-21T06:03:55;22.90;;;15.02;;
21894;SDS011;11112;51.270;7.224;2023-11-21T06:06:22;22.17;;;14.05;;
21894;SDS011;11112;51.270;7.224;2023-11-21T06:08:51;21.40;;;13.02;;
21894;SDS011;11112;51.270;7.224;2023-11-21T06:11:18;20.73;;;12.82;;
21894;SDS011;11112;51.270;7.224;2023-11-21T06:13:45;25.25;;;13.70;;
21894;SDS011;11112;51.270;7.224;2023-11-21T06:16:13;23.88;;;13.55;;
21894;SDS011;11112;51.270;7.224;2023-11-21T06:18:42;23.88;;;14.07;;
21894;SDS011;11112;51.270;7.224;2023-11-21T06:21:09;27.35;;;14.43;;
21894;SDS011;11112;51.270;7.224;2023-11-21T06:23:37;25.25;;;14.38;;
21894;SDS011;11112;51.270;7.224;2023-11-21T06:26:06;23.13;;;13.30;;
21894;SDS011;11112;51.270;7.224;2023-11-21T06:28:34;22.75;;;13.20;;
21894;SDS011;11112;51.270;7.224;2023-11-21T06:31:02;26.67;;;13.93;;
21894;SDS011;11112;51.270;7.224;2023-11-21T06:33:31;26.77;;;13.90;;
21894;SDS011;11112;51.270;7.224;2023-11-21T06:35:58;26.95;;;14.85;;
21894;SDS011;11112;51.270;7.224;2023-11-21T06:38:27;26.33;;;14.52;;
21894;SDS011;11112;51.270;7.224;2023-11-21T06:40:55;25.50;;;14.82;;
21894;SDS011;11112;51.270;7.224;2023-11-21T06:43:24;27.17;;;14.40;;
21894;SDS011;11112;51.270;7.224;2023-11-21T06:45:52;27.77;;;15.30;;
21894;SDS011;11112;51.270;7.224;2023-11-21T06:48:19;29.63;;;15.05;;
21894;SDS011;11112;51.270;7.224;2023-11-21T06:50:46;26.58;;;14.52;;
21894;SDS011;11112;51.270;7.224;2023-11-21T06:53:14;27.50;;;14.80;;
21894;SDS011;11112;51.270;7.224;2023-11-21T06:55:41;29.98;;;15.45;;
21894;SDS011;11112;51.270;7.224;2023-11-21T06:58:10;27.65;;;15.48;;
21894;SDS011;11112;51.270;7.224;2023-11-21T07:00:38;28.00;;;15.50;;
21894;SDS011;11112;51.270;7.224;2023-11-21T07:03:06;26.60;;;14.75;;
21894;SDS011;11112;51.270;7.224;2023-11-21T07:05:33;28.58;;;14.65;;
21894;SDS011;11112;51.270;7.224;2023-11-21T07:08:01;26.60;;;15.13;;
21894;SDS011;11112;51.270;7.224;2023-11-21T07:10:29;26.83;;;14.68;;
21894;SDS011;11112;51.270;7.224;2023-11-21T07:12:58;24.10;;;14.05;;
21894;SDS011;11112;51.270;7.224;2023-11-21T07:15:28;27.65;;;13.88;;
21894;SDS011;11112;51.270;7.224;2023-11-21T07:17:56;29.13;;;14.60;;
21894;SDS011;11112;51.270;7.224;2023-11-21T07:20:24;29.67;;;15.25;;
21894;SDS011;11112;51.270;7.224;2023-11-21T07:22:52;26.05;;;14.85;;
21894;SDS011;11112;51.270;7.224;2023-11-21T07:25:19;34.42;;;15.35;;
21894;SDS011;11112;51.270;7.224;2023-11-21T07:27:47;27.30;;;15.13;;
21894;SDS011;11112;51.270;7.224;2023-11-21T07:30:14;28.80;;;15.05;;
21894;SDS011;11112;51.270;7.224;2023-11-21T07:32:42;29.30;;;15.02;;
21894;SDS011;11112;51.270;7.224;2023-11-21T07:35:13;29.02;;;14.50;;
21894;SDS011;11112;51.270;7.224;2023-11-21T07:37:40;28.38;;;15.40;;
21894;SDS011;11112;51.270;7.224;2023-11-21T07:40:08;27.67;;;14.13;;
21894;SDS011;11112;51.270;7.224;2023-11-21T07:42:36;29.73;;;14.50;;
21894;SDS011;11112;51.270;7.224;2023-11-21T07:45:04;32.58;;;14.95;;
21894;SDS011;11112;51.270;7.224;2023-11-21T07:47:33;31.40;;;14.77;;
21894;SDS011;11112;51.270;7.224;2023-11-21T07:50:01;28.45;;;15.18;;
21894;SDS011;11112;51.270;7.224;2023-11-21T07:52:30;28.42;;;14.80;;
21894;SDS011;11112;51.270;7.224;2023-11-21T07:54:57;30.45;;;14.93;;
21894;SDS011;11112;51.270;7.224;2023-11-21T07:57:24;29.58;;;14.32;;
21894;SDS011;11112;51.270;7.224;2023-11-21T07:59:51;26.27;;;14.27;;
21894;SDS011;11112;51.270;7.224;2023-11-21T08:02:19;27.70;;;15.00;;
21894;SDS011;11112;51.270;7.224;2023-11-21T08:04:46;25.98;;;14.00;;
21894;SDS011;11112;51.270;7.224;2023-11-21T08:07:14;25.58;;;13.75;;
21894;SDS011;11112;51.270;7.224;2023-11-21T08:09:43;31.33;;;14.38;;
21894;SDS011;11112;51.270;7.224;2023-11-21T08:12:11;29.02;;;14.57;;
21894;SDS011;11112;51.270;7.224;2023-11-21T08:14:40;27.48;;;14.20;;
21894;SDS011;11112;51.270;7.224;2023-11-21T08:17:08;25.05;;;13.75;;
21894;SDS011;11112;51.270;7.224;2023-11-21T08:19:35;27.63;;;14.27;;
21894;SDS011;11112;51.270;7.224;2023-11-21T08:22:03;28.95;;;14.25;;
21894;SDS011;11112;51.270;7.224;2023-11-21T08:24:33;26.17;;;14.10;;
21894;SDS011;11112;51.270;7.224;2023-11-21T08:27:01;28.45;;;14.32;;
21894;SDS011;11112;51.270;7.224;2023-11-21T08:29:29;30.00;;;14.80;;
21894;SDS011;11112;51.270;7.224;2023-11-21T08:31:57;26.95;;;15.38;;
21894;SDS011;11112;51.270;7.224;2023-11-21T08:34:25;28.23;;;15.23;;
21894;SDS011;11112;51.270;7.224;2023-11-21T08:36:52;27.77;;;15.23;;
21894;SDS011;11112;51.270;7.224;2023-11-21T08:39:20;30.05;;;15.65;;
21894;SDS011;11112;51.270;7.224;2023-11-21T08:41:49;30.13;;;16.50;;
21894;SDS011;11112;51.270;7.224;2023-11-21T08:44:17;31.48;;;16.23;;
21894;SDS011;11112;51.270;7.224;2023-11-21T08:46:45;40.25;;;16.88;;
21894;SDS011;11112;51.270;7.224;2023-11-21T08:49:12;30.30;;;16.52;;
21894;SDS011;11112;51.270;7.224;2023-11-21T08:51:40;30.55;;;17.25;;
21894;SDS011;11112;51.270;7.224;2023-11-21T08:54:07;32.42;;;16.55;;
21894;SDS011;11112;51.270;7.224;2023-11-21T08:56:35;31.40;;;16.08;;
21894;SDS011;11112;51.270;7.224;2023-11-21T08:59:02;31.27;;;15.75;;
21894;SDS011;11112;51.270;7.224;2023-11-21T09:01:31;32.78;;;16.33;;
21894;SDS011;11112;51.270;7.224;2023-11-21T09:04:01;28.95;;;16.23;;
21894;SDS011;11112;51.270;7.224;2023-11-21T09:06:28;31.98;;;16.80;;
21894;SDS011;11112;51.270;7.224;2023-11-21T09:08:55;33.97;;;17.02;;
21894;SDS011;11112;51.270;7.224;2023-11-21T09:11:23;32.42;;;17.23;;
21894;SDS011;11112;51.270;7.224;2023-11-21T09:13:52;34.28;;;18.67;;
21894;SDS011;11112;51.270;7.224;2023-11-21T09:16:19;31.05;;;17.40;;
21894;SDS011;11112;51.270;7.224;2023-11-21T09:18:48;31.45;;;16.33;;
21894;SDS011;11112;51.270;7.224;2023-11-21T09:21:15;34.75;;;17.73;;
21894;SDS011;11112;51.270;7.224;2023-11-21T09:23:42;34.45;;;17.35;;
21894;SDS011;11112;51.270;7.224;2023-11-21T09:26:11;34.80;;;17.95;;
21894;SDS011;11112;51.270;7.224;2023-11-21T09:28:41;36.53;;;18.42;;
21894;SDS011;11112;51.270;7.224;2023-11-21T09:31:11;39.58;;;19.85;;
21894;SDS011;11112;51.270;7.224;2023-11-21T09:33:40;39.10;;;19.20;;
21894;SDS011;11112;51.270;7.224;2023-11-21T09:36:12;39.03;;;19.58;;
21894;SDS011;11112;51.270;7.224;2023-11-21T09:38:40;38.53;;;19.60;;
21894;SDS011;11112;51.270;7.224;2023-11-21T09:41:09;40.53;;;20.50;;
21894;SDS011;11112;51.270;7.224;2023-11-21T09:43:48;43.00;;;20.05;;
21894;SDS011;11112;51.270;7.224;2023-11-21T09:46:21;40.80;;;19.70;;
21894;SDS011;11112;51.270;7.224;2023-11-21T09:48:50;43.13;;;20.65;;
21894;SDS011;11112;51.270;7.224;2023-11-21T09:51:20;39.63;;;20.95;;
21894;SDS011;11112;51.270;7.224;2023-11-21T09:53:50;35.60;;;20.20;;
21894;SDS011;11112;51.270;7.224;2023-11-21T09:56:18;37.28;;;19.50;;
21894;SDS011;11112;51.270;7.224;2023-11-21T09:58:50;43.25;;;21.23;;
21894;SDS011;11112;51.270;7.224;2023-11-21T10:01:19;41.22;;;19.67;;
21894;SDS011;11112;51.270;7.224;2023-11-21T10:03:49;40.10;;;20.05;;
21894;SDS011;11112;51.270;7.224;2023-11-21T10:06:19;46.60;;;22.42;;
21894;SDS011;11112;51.270;7.224;2023-11-21T10:08:47;43.80;;;21.67;;
21894;SDS011;11112;51.270;7.224;2023-11-21T10:11:15;45.00;;;22.10;;
21894;SDS011;11112;51.270;7.224;2023-11-21T10:13:46;39.67;;;19.98;;
21894;SDS011;11112;51.270;7.224;2023-11-21T10:16:16;37.20;;;19.77;;
21894;SDS011;11112;51.270;7.224;2023-11-21T10:18:47;38.75;;;19.52;;
21894;SDS011;11112;51.270;7.224;2023-11-21T10:21:20;37.88;;;18.63;;
21894;SDS011;11112;51.270;7.224;2023-11-21T10:23:48;35.80;;;16.73;;
21894;SDS011;11112;51.270;7.224;2023-11-21T10:26:18;36.30;;;17.88;;
21894;SDS011;11112;51.270;7.224;2023-11-21T10:28:54;35.53;;;17.70;;
21894;SDS011;11112;51.270;7.224;2023-11-21T10:31:22;37.85;;;17.33;;
21894;SDS011;11112;51.270;7.224;2023-11-21T10:33:50;40.10;;;17.70;;
21894;SDS011;11112;51.270;7.224;2023-11-21T10:36:26;34.97;;;16.77;;
21894;SDS011;11112;51.270;7.224;2023-11-21T10:38:54;38.50;;;17.17;;
21894;SDS011;11112;51.270;7.224;2023-11-21T10:41:22;39.38;;;17.80;;
21894;SDS011;11112;51.270;7.224;2023-11-21T10:43:52;36.88;;;16.70;;
21894;SDS011;11112;51.270;7.224;2023-11-21T10:46:21;32.20;;;15.40;;
21894;SDS011;11112;51.270;7.224;2023-11-21T10:48:52;34.47;;;15.05;;
21894;SDS011;11112;51.270;7.224;2023-11-21T10:51:21;36.80;;;15.68;;
21894;SDS011;11112;51.270;7.224;2023-11-21T10:53:50;35.70;;;16.15;;
21894;SDS011;11112;51.270;7.224;2023-11-21T10:56:18;38.45;;;16.30;;
21894;SDS011;11112;51.270;7.224;2023-11-21T10:58:49;40.78;;;16.90;;
21894;SDS011;11112;51.270;7.224;2023-11-21T11:01:17;38.17;;;16.48;;
21894;SDS011;11112;51.270;7.224;2023-11-21T11:03:46;38.92;;;15.50;;
21894;SDS011;11112;51.270;7.224;2023-11-21T11:06:14;36.78;;;14.95;;
21894;SDS011;11112;51.270;7.224;2023-11-21T11:08:42;44.17;;;15.25;;
21894;SDS011;11112;51.270;7.224;2023-11-21T11:11:12;43.00;;;14.73;;
21894;SDS011;11112;51.270;7.224;2023-11-21T11:13:43;36.97;;;13.95;;
21894;SDS011;11112;51.270;7.224;2023-11-21T11:16:11;31.75;;;12.77;;
21894;SDS011;11112;51.270;7.224;2023-11-21T11:18:42;33.55;;;12.45;;
21894;SDS011;11112;51.270;7.224;2023-11-21T11:21:14;30.85;;;12.05;;
21894;SDS011;11112;51.270;7.224;2023-11-21T11:23:58;30.52;;;10.70;;
21894;SDS011;11112;51.270;7.224;2023-11-21T11:26:43;31.60;;;11.25;;
21894;SDS011;11112;51.270;7.224;2023-11-21T11:29:20;33.47;;;11.57;;
21894;SDS011;11112;51.270;7.224;2023-11-21T11:32:02;32.30;;;13.05;;
21894;SDS011;11112;51.270;7.224;2023-11-21T11:34:40;36.50;;;13.90;;
21894;SDS011;11112;51.270;7.224;2023-11-21T11:37:15;34.00;;;12.82;;
21894;SDS011;11112;51.270;7.224;2023-11-21T11:39:42;34.92;;;12.85;;
21894;SDS011;11112;51.270;7.224;2023-11-21T11:42:13;26.15;;;12.18;;
21894;SDS011;11112;51.270;7.224;2023-11-21T11:44:46;33.73;;;13.37;;
21894;SDS011;11112;51.270;7.224;2023-11-21T11:47:20;32.00;;;14.10;;
21894;SDS011;11112;51.270;7.224;2023-11-21T11:52:33;33.00;;;13.05;;
21894;SDS011;11112;51.270;7.224;2023-11-21T11:55:08;33.22;;;13.90;;
21894;SDS011;11112;51.270;7.224;2023-11-21T11:57:40;31.50;;;13.90;;
21894;SDS011;11112;51.270;7.224;2023-11-21T12:00:12;32.30;;;14.30;;
21894;SDS011;11112;51.270;7.224;2023-11-21T12:02:45;30.60;;;14.15;;
21894;SDS011;11112;51.270;7.224;2023-11-21T12:05:14;34.03;;;13.80;;
21894;SDS011;11112;51.270;7.224;2023-11-21T12:07:44;35.97;;;15.60;;
21894;SDS011;11112;51.270;7.224;2023-11-21T12:10:13;37.40;;;16.25;;
21894;SDS011;11112;51.270;7.224;2023-11-21T12:12:44;36.20;;;16.17;;
21894;SDS011;11112;51.270;7.224;2023-11-21T12:15:13;40.28;;;18.05;;
21894;SDS011;11112;51.270;7.224;2023-11-21T12:17:41;38.85;;;17.35;;
21894;SDS011;11112;51.270;7.224;2023-11-21T12:20:10;39.25;;;17.30;;
21894;SDS011;11112;51.270;7.224;2023-11-21T12:22:43;38.83;;;17.77;;
21894;SDS011;11112;51.270;7.224;2023-11-21T12:25:14;42.47;;;17.83;;
21894;SDS011;11112;51.270;7.224;2023-11-21T12:27:45;42.20;;;18.80;;
21894;SDS011;11112;51.270;7.224;2023-11-21T12:30:14;44.63;;;19.38;;
21894;SDS011;11112;51.270;7.224;2023-11-21T12:32:44;45.38;;;19.40;;
21894;SDS011;11112;51.270;7.224;2023-11-21T12:35:14;47.38;;;20.35;;
21894;SDS011;11112;51.270;7.224;2023-11-21T12:37:44;45.13;;;19.10;;
21894;SDS011;11112;51.270;7.224;2023-11-21T12:40:14;46.75;;;19.58;;
21894;SDS011;11112;51.270;7.224;2023-11-21T12:42:43;50.65;;;21.30;;
21894;SDS011;11112;51.270;7.224;2023-11-21T12:45:20;50.42;;;20.42;;
21894;SDS011;11112;51.270;7.224;2023-11-21T12:47:51;52.38;;;21.40;;
21894;SDS011;11112;51.270;7.224;2023-11-21T12:50:22;55.03;;;21.30;;
21894;SDS011;11112;51.270;7.224;2023-11-21T12:52:54;59.85;;;22.55;;
21894;SDS011;11112;51.270;7.224;2023-11-21T12:55:25;47.10;;;21.20;;
21894;SDS011;11112;51.270;7.224;2023-11-21T12:57:58;58.00;;;22.35;;
21894;SDS011;11112;51.270;7.224;2023-11-21T13:00:34;54.60;;;22.42;;
21894;SDS011;11112;51.270;7.224;2023-11-21T13:05:38;49.35;;;21.23;;
21894;SDS011;11112;51.270;7.224;2023-11-21T13:08:07;57.00;;;23.40;;
21894;SDS011;11112;51.270;7.224;2023-11-21T13:10:38;56.22;;;23.77;;
21894;SDS011;11112;51.270;7.224;2023-11-21T13:13:11;56.97;;;22.58;;
21894;SDS011;11112;51.270;7.224;2023-11-21T13:15:47;54.40;;;22.77;;
21894;SDS011;11112;51.270;7.224;2023-11-21T13:18:15;53.88;;;23.10;;
21894;SDS011;11112;51.270;7.224;2023-11-21T13:20:43;56.00;;;24.15;;
21894;SDS011;11112;51.270;7.224;2023-11-21T13:23:11;56.40;;;24.23;;
21894;SDS011;11112;51.270;7.224;2023-11-21T13:25:44;56.47;;;25.00;;
21894;SDS011;11112;51.270;7.224;2023-11-21T13:28:14;52.60;;;24.15;;
21894;SDS011;11112;51.270;7.224;2023-11-21T13:30:43;52.25;;;23.25;;
21894;SDS011;11112;51.270;7.224;2023-11-21T13:33:11;50.92;;;22.80;;
21894;SDS011;11112;51.270;7.224;2023-11-21T13:35:43;45.42;;;21.35;;
21894;SDS011;11112;51.270;7.224;2023-11-21T13:38:15;42.17;;;20.58;;
21894;SDS011;11112;51.270;7.224;2023-11-21T13:40:48;39.65;;;20.20;;
21894;SDS011;11112;51.270;7.224;2023-11-21T13:43:20;34.88;;;19.55;;
21894;SDS011;11112;51.270;7.224;2023-11-21T13:45:50;32.67;;;18.17;;
21894;SDS011;11112;51.270;7.224;2023-11-21T13:48:24;29.83;;;17.80;;
21894;SDS011;11112;51.270;7.224;2023-11-21T13:50:57;27.07;;;16.90;;
21894;SDS011;11112;51.270;7.224;2023-11-21T13:53:31;29.52;;;17.38;;
21894;SDS011;11112;51.270;7.224;2023-11-21T13:56:01;32.22;;;18.05;;
21894;SDS011;11112;51.270;7.224;2023-11-21T13:58:30;30.67;;;17.33;;
21894;SDS011;11112;51.270;7.224;2023-11-21T14:01:06;30.55;;;16.65;;
21894;SDS011;11112;51.270;7.224;2023-11-21T14:03:47;26.45;;;15.75;;
21894;SDS011;11112;51.270;7.224;2023-11-21T14:08:52;23.33;;;13.93;;
21894;SDS011;11112;51.270;7.224;2023-11-21T14:11:21;21.33;;;14.40;;
21894;SDS011;11112;51.270;7.224;2023-11-21T14:13:50;21.58;;;14.27;;
21894;SDS011;11112;51.270;7.224;2023-11-21T14:16:17;19.90;;;14.48;;
21894;SDS011;11112;51.270;7.224;2023-11-21T14:18:44;21.60;;;14.73;;
21894;SDS011;11112;51.270;7.224;2023-11-21T14:21:20;22.73;;;14.50;;
21894;SDS011;11112;51.270;7.224;2023-11-21T14:23:47;22.45;;;13.73;;
21894;SDS011;11112;51.270;7.224;2023-11-21T14:26:15;20.10;;;14.32;;
21894;SDS011;11112;51.270;7.224;2023-11-21T14:28:43;21.60;;;14.18;;
21894;SDS011;11112;51.270;7.224;2023-11-21T14:31:12;21.17;;;14.35;;
21894;SDS011;11112;51.270;7.224;2023-11-21T14:33:42;21.27;;;14.40;;
21894;SDS011;11112;51.270;7.224;2023-11-21T14:36:10;24.60;;;14.85;;
21894;SDS011;11112;51.270;7.224;2023-11-21T14:38:37;20.77;;;14.10;;